Time;durP1;ratioP1;P1;durP2;ratioP2;P2;SDS_P1;SDS_P2;PMS_P1;PMS_P2;Temp;Humidity;BMP_temperature;BMP_pressure;BME280_temperature;BME280_humidity;BME280_pressure;Samples;Min_cycle;Max_cycle;Signal;HPM_P1;HPM_P2
2022/11/25 00:01:10;;;;;;;;;;;7.10;99.90;;;;;;5093193;28;20276;-76
2022/11/25 00:03:36;;;;;;;;;;;7.10;99.90;;;;;;5093349;28;19912;-76
2022/11/25 00:06:08;;;;;;;;;;;7.20;99.90;;;;;;5108287;28;19914;-77
2022/11/25 00:08:34;;;;;;;;;;;7.20;99.90;;;;;;5093113;28;19908;-76
2022/11/25 00:11:00;;;;;;;;;;;7.20;99.90;;;;;;5092647;28;19976;-76
2022/11/25 00:13:25;;;;;;;;;;;7.20;99.90;;;;;;5092927;28;19919;-76
2022/11/25 00:15:51;;;;;;;;;;;7.30;99.90;;;;;;5092247;28;19908;-76
2022/11/25 00:18:16;;;;;;;;;;;7.30;99.90;;;;;;5074955;28;19979;-76
2022/11/25 00:20:42;;;;;;;;;;;7.30;99.90;;;;;;5092630;28;20388;-76
2022/11/25 00:23:08;;;;;;;;;;;7.30;99.90;;;;;;5093144;28;19987;-76
2022/11/25 00:25:33;;;;;;;;;;;7.30;99.90;;;;;;5093814;28;19908;-76
2022/11/25 00:27:59;;;;;;;;;;;7.30;99.90;;;;;;5096538;28;19915;-76
2022/11/25 00:30:24;;;;;;;;;;;7.30;99.90;;;;;;5078858;28;19969;-77
2022/11/25 00:32:51;;;;;;;;;;;7.30;99.90;;;;;;5096467;28;19912;-76
2022/11/25 00:35:17;;;;;;;;;;;7.30;99.90;;;;;;5096872;28;19915;-77
2022/11/25 00:37:43;;;;;;;;;;;7.30;99.90;;;;;;5096263;28;19912;-76
2022/11/25 00:40:09;;;;;;;;;;;7.40;99.90;;;;;;5096436;28;20377;-77
2022/11/25 00:45:18;;;;;;;;;;;7.40;99.90;;;;;;5096661;28;19920;-76
2022/11/25 00:47:44;;;;;;;;;;;7.40;99.90;;;;;;5096577;28;19908;-76
2022/11/25 00:50:09;;;;;;;;;;;7.40;99.90;;;;;;5096609;28;19915;-77
2022/11/25 00:52:35;;;;;;;;;;;7.40;99.90;;;;;;5096478;28;20254;-76
2022/11/25 00:55:01;;;;;;;;;;;7.40;99.90;;;;;;5095904;28;19920;-76
2022/11/25 00:57:27;;;;;;;;;;;7.40;99.90;;;;;;5096583;28;19912;-76
2022/11/25 00:59:53;;;;;;;;;;;7.40;99.90;;;;;;5077857;28;20048;-76
2022/11/25 01:02:18;;;;;;;;;;;7.30;99.90;;;;;;5096398;28;20246;-76
2022/11/25 01:04:44;;;;;;;;;;;7.40;99.90;;;;;;5095734;28;19970;-76
2022/11/25 01:07:10;;;;;;;;;;;7.40;99.90;;;;;;5096265;28;19915;-76
2022/11/25 01:09:36;;;;;;;;;;;7.40;99.90;;;;;;5096327;28;19931;-76
2022/11/25 01:12:02;;;;;;;;;;;7.40;99.90;;;;;;5095651;28;20547;-76
2022/11/25 01:14:27;;;;;;;;;;;7.30;99.90;;;;;;5096137;28;19912;-76
2022/11/25 01:16:53;;;;;;;;;;;7.30;99.90;;;;;;5095490;28;19912;-76
2022/11/25 01:19:19;;;;;;;;;;;7.30;99.90;;;;;;5096018;28;19912;-77
2022/11/25 01:21:45;;;;;;;;;;;7.30;99.90;;;;;;5095400;28;20003;-76
2022/11/25 01:24:12;;;;;;;;;;;7.20;99.90;;;;;;5077822;28;19916;-76
2022/11/25 01:26:38;;;;;;;;;;;7.20;99.90;;;;;;5095873;28;19912;-76
2022/11/25 01:29:05;;;;;;;;;;;7.20;99.90;;;;;;5077264;28;19915;-76
2022/11/25 01:31:31;;;;;;;;;;;7.20;99.90;;;;;;5095526;28;19908;-76
2022/11/25 01:34:01;;;;;;;;;;;7.20;99.90;;;;;;5094990;28;19915;-76
2022/11/25 01:36:27;;;;;;;;;;;7.20;99.90;;;;;;5095476;28;19912;-76
2022/11/25 01:38:57;;;;;;;;;;;7.20;99.90;;;;;;5095123;28;19912;-76
2022/11/25 01:41:23;;;;;;;;;;;7.20;99.90;;;;;;5095377;28;20323;-76
2022/11/25 01:44:21;;;;;;;;;;;7.10;99.90;;;;;;5094732;28;20369;-76
2022/11/25 01:46:51;;;;;;;;;;;7.20;99.90;;;;;;5065201;28;19931;-76
2022/11/25 01:49:37;;;;;;;;;;;7.20;99.90;;;;;;5095528;28;19908;-77
2022/11/25 01:52:15;;;;;;;;;;;7.20;99.90;;;;;;5094538;28;20257;-76
2022/11/25 01:54:50;;;;;;;;;;;7.20;99.90;;;;;;5095270;28;19928;-74
2022/11/25 01:57:37;;;;;;;;;;;7.30;99.90;;;;;;5095164;28;19920;-77
2022/11/25 02:00:04;;;;;;;;;;;7.30;99.90;;;;;;5094621;28;19965;-76
2022/11/25 02:02:30;;;;;;;;;;;7.30;99.90;;;;;;5095293;28;20002;-76
2022/11/25 02:04:56;;;;;;;;;;;7.30;99.90;;;;;;5094375;28;19950;-74
2022/11/25 02:07:33;;;;;;;;;;;7.30;99.90;;;;;;5095089;28;19908;-77
2022/11/25 02:10:00;;;;;;;;;;;7.30;99.90;;;;;;5094518;28;20379;-74
2022/11/25 02:12:27;;;;;;;;;;;7.30;99.90;;;;;;5094796;28;19943;-76
2022/11/25 02:14:53;;;;;;;;;;;7.20;99.90;;;;;;5094269;28;19908;-76
2022/11/25 02:17:19;;;;;;;;;;;7.20;99.90;;;;;;5094735;28;20012;-74
2022/11/25 02:19:57;;;;;;;;;;;7.20;99.90;;;;;;5094470;28;19959;-77
2022/11/25 02:22:26;;;;;;;;;;;7.20;99.90;;;;;;5076776;28;19909;-76
2022/11/25 02:24:55;;;;;;;;;;;7.20;99.90;;;;;;5094336;28;19908;-76
2022/11/25 02:27:21;;;;;;;;;;;7.20;99.90;;;;;;5094691;28;20006;-76
2022/11/25 02:29:47;;;;;;;;;;;7.20;99.90;;;;;;5076292;28;20003;-76
2022/11/25 02:32:12;;;;;;;;;;;7.30;99.90;;;;;;5094195;28;19912;-77
2022/11/25 02:34:45;;;;;;;;;;;7.30;99.90;;;;;;5110115;28;19945;-76
2022/11/25 02:37:11;;;;;;;;;;;7.30;99.90;;;;;;5094010;28;20368;-77
2022/11/25 02:39:36;;;;;;;;;;;7.30;99.90;;;;;;5094496;28;19973;-76
2022/11/25 02:42:02;;;;;;;;;;;7.30;99.90;;;;;;5094330;28;19915;-77
2022/11/25 02:44:28;;;;;;;;;;;7.30;99.90;;;;;;5094102;28;19912;-77
2022/11/25 02:46:53;;;;;;;;;;;7.30;99.90;;;;;;5093685;28;19985;-77
2022/11/25 02:49:19;;;;;;;;;;;7.30;99.90;;;;;;5093476;28;19908;-76
2022/11/25 02:51:44;;;;;;;;;;;7.30;99.90;;;;;;5094278;28;19962;-77
2022/11/25 02:54:10;;;;;;;;;;;7.40;99.90;;;;;;5093835;28;20518;-77
2022/11/25 02:56:36;;;;;;;;;;;7.40;99.90;;;;;;5109885;28;19920;-76
2022/11/25 02:59:02;;;;;;;;;;;7.40;99.90;;;;;;5093556;28;19931;-77
2022/11/25 03:01:29;;;;;;;;;;;7.40;99.90;;;;;;5093811;28;19912;-76
2022/11/25 03:03:55;;;;;;;;;;;7.40;99.90;;;;;;5093694;28;19908;-76
2022/11/25 03:06:21;;;;;;;;;;;7.40;99.90;;;;;;5093857;28;19908;-77
2022/11/25 03:08:46;;;;;;;;;;;7.40;99.90;;;;;;5109639;28;19908;-76
2022/11/25 03:11:12;;;;;;;;;;;7.40;99.90;;;;;;5093851;28;19904;-76
2022/11/25 03:13:38;;;;;;;;;;;7.40;99.90;;;;;;5094089;28;20373;-76
2022/11/25 03:16:04;;;;;;;;;;;7.40;99.90;;;;;;5093056;28;20326;-75
2022/11/25 03:18:29;;;;;;;;;;;7.40;99.90;;;;;;5093712;28;19908;-77
2022/11/25 03:20:55;;;;;;;;;;;7.40;99.90;;;;;;5093712;28;20265;-76
2022/11/25 03:23:21;;;;;;;;;;;7.40;99.90;;;;;;5075592;28;19908;-76
2022/11/25 03:25:46;;;;;;;;;;;7.30;99.90;;;;;;5093595;28;19915;-76
2022/11/25 03:28:12;;;;;;;;;;;7.30;99.90;;;;;;5093011;28;19935;-76
2022/11/25 03:30:37;;;;;;;;;;;7.30;99.90;;;;;;5093219;28;19918;-76
2022/11/25 03:33:03;;;;;;;;;;;7.30;99.90;;;;;;5075020;28;19941;-76
2022/11/25 03:35:29;;;;;;;;;;;7.30;99.90;;;;;;5093816;28;20040;-77
2022/11/25 03:37:55;;;;;;;;;;;7.20;99.90;;;;;;5093137;28;20409;-76
2022/11/25 03:40:20;;;;;;;;;;;7.20;99.90;;;;;;5093463;28;19908;-76
2022/11/25 03:42:46;;;;;;;;;;;7.30;99.90;;;;;;5093283;28;19956;-77
2022/11/25 03:45:13;;;;;;;;;;;7.30;99.90;;;;;;5092625;28;19908;-76
2022/11/25 03:47:39;;;;;;;;;;;7.30;99.90;;;;;;5093337;28;19966;-77
2022/11/25 03:50:05;;;;;;;;;;;7.30;99.90;;;;;;5092836;28;19915;-76
2022/11/25 03:52:30;;;;;;;;;;;7.20;99.90;;;;;;5093321;28;19908;-76
2022/11/25 03:54:56;;;;;;;;;;;7.20;99.90;;;;;;5092447;28;20007;-75
2022/11/25 03:57:22;;;;;;;;;;;7.20;99.90;;;;;;5093358;28;19917;-76
2022/11/25 03:59:47;;;;;;;;;;;7.20;99.90;;;;;;5093263;28;19998;-76
2022/11/25 04:02:13;;;;;;;;;;;7.20;99.90;;;;;;5096224;28;20467;-76
2022/11/25 04:04:39;;;;;;;;;;;7.20;99.90;;;;;;5097546;28;19909;-76
2022/11/25 04:07:04;;;;;;;;;;;7.20;99.90;;;;;;5096972;28;19915;-76
2022/11/25 04:09:30;;;;;;;;;;;7.10;99.90;;;;;;5096962;28;19912;-76
2022/11/25 04:14:40;;;;;;;;;;;7.10;99.90;;;;;;5096921;28;19930;-76
2022/11/25 04:17:05;;;;;;;;;;;7.10;99.90;;;;;;5096833;28;20409;-76
2022/11/25 04:19:31;;;;;;;;;;;7.10;99.90;;;;;;5097002;28;20361;-75
2022/11/25 04:22:00;;;;;;;;;;;7.10;99.90;;;;;;5096875;28;19998;-75
2022/11/25 04:24:25;;;;;;;;;;;7.00;99.90;;;;;;5097016;28;19908;-76
2022/11/25 04:26:51;;;;;;;;;;;7.10;99.90;;;;;;5097054;28;19915;-76
2022/11/25 04:29:16;;;;;;;;;;;7.10;99.90;;;;;;5096359;28;19904;-76
2022/11/25 04:31:42;;;;;;;;;;;7.00;99.90;;;;;;5097117;28;19908;-76
2022/11/25 04:34:08;;;;;;;;;;;6.90;99.90;;;;;;5096856;28;19919;-76
2022/11/25 04:36:33;;;;;;;;;;;7.00;99.90;;;;;;5096808;28;19968;-76
2022/11/25 04:38:59;;;;;;;;;;;7.00;99.90;;;;;;5096255;28;20003;-75
2022/11/25 04:41:24;;;;;;;;;;;7.00;99.90;;;;;;5096838;28;19908;-76
2022/11/25 04:43:50;;;;;;;;;;;7.00;99.90;;;;;;5096712;28;20357;-76
2022/11/25 04:46:17;;;;;;;;;;;7.10;99.90;;;;;;5096200;28;19908;-75
2022/11/25 04:48:42;;;;;;;;;;;7.10;99.90;;;;;;5096449;28;19915;-76
2022/11/25 04:51:08;;;;;;;;;;;7.10;99.90;;;;;;5096202;28;19995;-76
2022/11/25 04:53:33;;;;;;;;;;;7.10;99.90;;;;;;5096302;28;20375;-76
2022/11/25 04:55:59;;;;;;;;;;;7.10;99.90;;;;;;5096169;28;19928;-75
2022/11/25 05:01:08;;;;;;;;;;;7.10;99.90;;;;;;5095843;28;19946;-75
2022/11/25 05:03:34;;;;;;;;;;;7.00;99.90;;;;;;5096375;28;19908;-76
2022/11/25 05:06:04;;;;;;;;;;;7.10;99.90;;;;;;5096057;28;20395;-76
2022/11/25 05:08:30;;;;;;;;;;;7.10;99.90;;;;;;5096295;28;20391;-76
2022/11/25 05:10:57;;;;;;;;;;;7.10;99.90;;;;;;5095990;28;19908;-76
2022/11/25 05:13:23;;;;;;;;;;;7.10;99.90;;;;;;5095117;28;20373;-76
2022/11/25 05:15:49;;;;;;;;;;;7.10;99.90;;;;;;5096149;28;19983;-75
2022/11/25 05:18:14;;;;;;;;;;;7.10;99.90;;;;;;5095641;28;19923;-76
2022/11/25 05:20:40;;;;;;;;;;;7.10;99.90;;;;;;5096150;28;19908;-75
2022/11/25 05:23:05;;;;;;;;;;;7.20;99.90;;;;;;5095475;28;19915;-75
2022/11/25 05:25:31;;;;;;;;;;;7.20;99.90;;;;;;5095967;28;19908;-74
2022/11/25 05:27:56;;;;;;;;;;;7.10;99.90;;;;;;5095864;28;19997;-75
2022/11/25 05:30:22;;;;;;;;;;;7.10;99.90;;;;;;5076985;28;19914;-75
2022/11/25 05:32:48;;;;;;;;;;;7.10;99.90;;;;;;5095906;28;20001;-75
2022/11/25 05:35:13;;;;;;;;;;;7.10;99.90;;;;;;5095005;28;19908;-74
2022/11/25 05:37:39;;;;;;;;;;;7.20;99.90;;;;;;5095296;28;19923;-75
2022/11/25 05:40:05;;;;;;;;;;;7.20;99.90;;;;;;5094887;28;19916;-75
2022/11/25 05:42:30;;;;;;;;;;;7.20;99.90;;;;;;5096004;28;19908;-75
2022/11/25 05:44:56;;;;;;;;;;;7.20;99.90;;;;;;5077384;28;20361;-75
2022/11/25 05:47:21;;;;;;;;;;;7.20;99.90;;;;;;5094856;28;19916;-75
2022/11/25 05:49:47;;;;;;;;;;;7.20;99.90;;;;;;5095278;28;19914;-75
2022/11/25 05:52:13;;;;;;;;;;;7.20;99.90;;;;;;5094845;28;19908;-75
2022/11/25 05:54:38;;;;;;;;;;;7.10;99.90;;;;;;5095088;28;19919;-75
2022/11/25 05:57:04;;;;;;;;;;;7.10;99.90;;;;;;5094870;28;19979;-75
2022/11/25 05:59:29;;;;;;;;;;;7.10;99.90;;;;;;5095205;28;19912;-75
2022/11/25 06:01:55;;;;;;;;;;;7.10;99.90;;;;;;5094814;28;20001;-75
2022/11/25 06:04:20;;;;;;;;;;;7.10;99.90;;;;;;5094723;28;19908;-75
2022/11/25 06:06:46;;;;;;;;;;;7.20;99.90;;;;;;5095012;28;19953;-75
2022/11/25 06:09:12;;;;;;;;;;;7.20;99.90;;;;;;5094107;28;19908;-75
2022/11/25 06:11:37;;;;;;;;;;;7.20;99.90;;;;;;5094983;28;20619;-75
2022/11/25 06:14:03;;;;;;;;;;;7.20;99.90;;;;;;5094851;28;19908;-75
2022/11/25 06:16:29;;;;;;;;;;;7.10;99.90;;;;;;5094484;28;19908;-75
2022/11/25 06:18:54;;;;;;;;;;;7.10;99.90;;;;;;5094588;28;20002;-75
2022/11/25 06:21:20;;;;;;;;;;;7.10;99.90;;;;;;5094323;28;19970;-76
2022/11/25 06:23:45;;;;;;;;;;;7.10;99.90;;;;;;5093969;28;19908;-75
2022/11/25 06:26:13;;;;;;;;;;;7.10;99.90;;;;;;5076184;28;20363;-75
2022/11/25 06:28:38;;;;;;;;;;;7.20;99.90;;;;;;5094566;28;19961;-75
2022/11/25 06:31:08;;;;;;;;;;;7.20;99.90;;;;;;5094459;28;19912;-74
2022/11/25 06:33:33;;;;;;;;;;;7.20;99.90;;;;;;5094538;28;20001;-75
2022/11/25 06:36:00;;;;;;;;;;;7.20;99.90;;;;;;5094554;28;19917;-75
2022/11/25 06:38:26;;;;;;;;;;;7.20;99.90;;;;;;5094042;28;19916;-75
2022/11/25 06:40:52;;;;;;;;;;;7.20;99.90;;;;;;5094350;28;19908;-74
2022/11/25 06:43:17;;;;;;;;;;;7.20;99.90;;;;;;5093834;28;19919;-75
2022/11/25 06:45:43;;;;;;;;;;;7.20;99.90;;;;;;5094287;28;20242;-75
2022/11/25 06:48:08;;;;;;;;;;;7.20;99.90;;;;;;5093863;28;19970;-75
2022/11/25 06:50:34;;;;;;;;;;;7.20;99.90;;;;;;5094065;28;19908;-75
2022/11/25 06:53:00;;;;;;;;;;;7.20;99.90;;;;;;5094274;28;19947;-76
2022/11/25 06:55:25;;;;;;;;;;;7.30;99.90;;;;;;5093184;28;19947;-75
2022/11/25 06:57:51;;;;;;;;;;;7.30;99.90;;;;;;5093686;28;20327;-75
2022/11/25 07:00:17;;;;;;;;;;;7.30;99.90;;;;;;5093995;28;19909;-75
2022/11/25 07:02:42;;;;;;;;;;;7.30;99.90;;;;;;5093679;28;19999;-75
2022/11/25 07:05:08;;;;;;;;;;;7.30;99.90;;;;;;5093664;28;20007;-75
2022/11/25 07:07:34;;;;;;;;;;;7.30;99.90;;;;;;5094291;28;19908;-75
2022/11/25 07:09:59;;;;;;;;;;;7.30;99.90;;;;;;5093613;28;20038;-75
2022/11/25 07:12:25;;;;;;;;;;;7.20;99.90;;;;;;5093442;28;19912;-75
2022/11/25 07:14:50;;;;;;;;;;;7.30;99.90;;;;;;5093609;28;19971;-75
2022/11/25 07:17:16;;;;;;;;;;;7.20;99.90;;;;;;5092920;28;19916;-74
2022/11/25 07:19:42;;;;;;;;;;;7.20;99.90;;;;;;5075555;28;19916;-75
2022/11/25 07:22:07;;;;;;;;;;;7.20;99.90;;;;;;5075450;28;19934;-75
2022/11/25 07:24:33;;;;;;;;;;;7.20;99.90;;;;;;5093257;28;19908;-75
2022/11/25 07:26:58;;;;;;;;;;;7.20;99.90;;;;;;5093545;28;19977;-75
2022/11/25 07:29:24;;;;;;;;;;;7.10;99.90;;;;;;5092959;28;20427;-75
2022/11/25 07:31:49;;;;;;;;;;;7.10;99.90;;;;;;5093943;28;19908;-75
2022/11/25 07:34:16;;;;;;;;;;;7.10;99.90;;;;;;5092938;28;19908;-75
2022/11/25 07:36:42;;;;;;;;;;;7.10;99.90;;;;;;5093431;28;20265;-75
2022/11/25 07:39:10;;;;;;;;;;;7.10;99.90;;;;;;5093433;28;19912;-74
2022/11/25 07:41:36;;;;;;;;;;;7.10;99.90;;;;;;5093177;28;19946;-74
2022/11/25 07:44:03;;;;;;;;;;;7.10;99.90;;;;;;5093356;28;19962;-74
2022/11/25 07:46:28;;;;;;;;;;;7.30;99.90;;;;;;5092807;28;19919;-74
2022/11/25 07:48:55;;;;;;;;;;;7.30;99.90;;;;;;5093104;28;19908;-74
2022/11/25 07:51:25;;;;;;;;;;;7.30;99.90;;;;;;5092718;28;19930;-74
2022/11/25 07:53:52;;;;;;;;;;;7.30;99.90;;;;;;5092876;28;20332;-75
2022/11/25 07:56:17;;;;;;;;;;;7.30;99.90;;;;;;5108053;28;19920;-74
2022/11/25 07:58:44;;;;;;;;;;;7.40;99.90;;;;;;5093279;28;19946;-74
2022/11/25 08:01:10;;;;;;;;;;;7.40;99.90;;;;;;5093060;28;19908;-74
2022/11/25 08:03:36;;;;;;;;;;;7.40;99.90;;;;;;5108633;28;19908;-74
2022/11/25 08:06:03;;;;;;;;;;;7.50;99.90;;;;;;5093019;28;20003;-74
2022/11/25 08:08:28;;;;;;;;;;;7.60;99.90;;;;;;5092509;28;19912;-75
2022/11/25 08:10:54;;;;;;;;;;;7.60;99.90;;;;;;5074767;28;20273;-75
2022/11/25 08:13:20;;;;;;;;;;;7.70;99.90;;;;;;5092702;28;19908;-74
2022/11/25 08:15:46;;;;;;;;;;;7.70;99.90;;;;;;5093123;28;19930;-75
2022/11/25 08:18:11;;;;;;;;;;;7.80;99.90;;;;;;5092524;28;19912;-74
2022/11/25 08:20:37;;;;;;;;;;;7.80;99.90;;;;;;5092875;28;19919;-75
2022/11/25 08:23:03;;;;;;;;;;;7.80;99.90;;;;;;5092491;28;20048;-77
2022/11/25 08:25:30;;;;;;;;;;;7.90;99.90;;;;;;5092538;28;20068;-74
2022/11/25 08:27:59;;;;;;;;;;;7.80;99.90;;;;;;5092686;28;19908;-76
2022/11/25 08:30:24;;;;;;;;;;;7.80;99.90;;;;;;5092239;28;19915;-76
2022/11/25 08:32:51;;;;;;;;;;;7.80;99.90;;;;;;5092800;28;19994;-76
2022/11/25 08:35:16;;;;;;;;;;;7.70;99.90;;;;;;5092348;28;19953;-76
2022/11/25 08:37:42;;;;;;;;;;;7.70;99.90;;;;;;5092417;28;19916;-74
2022/11/25 08:40:09;;;;;;;;;;;7.70;99.90;;;;;;5092772;28;19923;-74
2022/11/25 08:42:35;;;;;;;;;;;7.70;99.90;;;;;;5092141;28;20508;-75
2022/11/25 08:45:01;;;;;;;;;;;7.90;99.90;;;;;;5092409;28;19915;-74
2022/11/25 08:47:26;;;;;;;;;;;8.00;99.90;;;;;;5094475;28;19912;-75
2022/11/25 08:49:52;;;;;;;;;;;8.10;99.90;;;;;;5096197;28;19909;-75
2022/11/25 08:52:18;;;;;;;;;;;8.20;99.90;;;;;;5077789;28;19918;-75
2022/11/25 08:54:44;;;;;;;;;;;8.30;99.90;;;;;;5096259;28;19915;-74
2022/11/25 08:57:10;;;;;;;;;;;8.40;99.90;;;;;;5096187;28;19912;-75
2022/11/25 08:59:35;;;;;;;;;;;8.50;99.90;;;;;;5077661;28;19936;-75
2022/11/25 09:02:01;;;;;;;;;;;8.50;99.90;;;;;;5078079;28;19957;-75
2022/11/25 09:04:26;;;;;;;;;;;8.60;99.90;;;;;;5095827;28;19908;-75
2022/11/25 09:06:52;;;;;;;;;;;8.60;99.90;;;;;;5094909;28;19913;-74
2022/11/25 09:09:18;;;;;;;;;;;8.60;99.90;;;;;;5095815;28;20377;-75
2022/11/25 09:11:44;;;;;;;;;;;8.70;99.90;;;;;;5096162;28;19955;-75
2022/11/25 09:14:09;;;;;;;;;;;8.70;99.90;;;;;;5096263;28;19912;-75
2022/11/25 09:16:35;;;;;;;;;;;8.70;99.90;;;;;;5095268;28;20597;-75
2022/11/25 09:19:00;;;;;;;;;;;8.70;99.90;;;;;;5095907;28;19958;-75
2022/11/25 09:21:26;;;;;;;;;;;8.70;99.90;;;;;;5095593;28;19909;-75
2022/11/25 09:23:53;;;;;;;;;;;8.70;99.90;;;;;;5095953;28;19908;-75
2022/11/25 09:26:21;;;;;;;;;;;8.70;99.90;;;;;;5111180;28;19912;-74
2022/11/25 09:28:46;;;;;;;;;;;8.80;99.90;;;;;;5092763;28;19908;-75
2022/11/25 09:31:12;;;;;;;;;;;8.90;99.90;;;;;;5094975;28;19908;-75
2022/11/25 09:33:37;;;;;;;;;;;8.90;99.90;;;;;;5094499;28;19915;-75
2022/11/25 09:36:05;;;;;;;;;;;9.00;99.90;;;;;;5095331;28;19915;-75
2022/11/25 09:38:30;;;;;;;;;;;9.00;99.90;;;;;;5110291;28;19923;-75
2022/11/25 09:40:56;;;;;;;;;;;9.00;99.90;;;;;;5095239;28;19912;-75
2022/11/25 09:49:08;;;;;;;;;;;9.00;99.90;;;;;;5095351;28;20368;-75
2022/11/25 09:51:45;;;;;;;;;;;9.00;99.90;;;;;;5094648;28;19969;-75
2022/11/25 09:54:17;;;;;;;;;;;9.00;99.90;;;;;;5095087;28;19908;-75
2022/11/25 09:56:54;;;;;;;;;;;9.00;99.90;;;;;;5094271;28;19926;-75
2022/11/25 09:59:26;;;;;;;;;;;9.00;99.90;;;;;;5094773;28;19912;-76
2022/11/25 10:01:54;;;;;;;;;;;9.10;99.90;;;;;;5095080;28;20369;-75
2022/11/25 10:04:30;;;;;;;;;;;9.10;99.90;;;;;;5094856;28;19955;-75
2022/11/25 10:06:59;;;;;;;;;;;9.10;99.90;;;;;;5094674;28;20364;-75
2022/11/25 10:09:27;;;;;;;;;;;9.20;99.90;;;;;;5094747;28;19915;-75
2022/11/25 10:11:59;;;;;;;;;;;9.30;99.90;;;;;;5094389;28;19916;-75
2022/11/25 10:14:38;;;;;;;;;;;9.30;99.90;;;;;;5094227;28;20378;-75
2022/11/25 10:17:04;;;;;;;;;;;9.30;99.90;;;;;;5094101;28;19916;-76
2022/11/25 10:19:29;;;;;;;;;;;9.20;99.90;;;;;;5093844;28;20009;-76
2022/11/25 10:21:55;;;;;;;;;;;9.30;99.90;;;;;;5093918;28;19908;-76
2022/11/25 10:24:21;;;;;;;;;;;9.30;99.90;;;;;;5093471;28;19908;-76
2022/11/25 10:26:57;;;;;;;;;;;9.30;99.90;;;;;;5076258;28;20015;-76
2022/11/25 10:29:27;;;;;;;;;;;9.40;99.90;;;;;;5093855;28;19914;-75
2022/11/25 10:31:58;;;;;;;;;;;9.40;99.90;;;;;;5094516;28;19908;-75
2022/11/25 10:34:33;;;;;;;;;;;9.30;99.90;;;;;;5093467;28;20421;-75
2022/11/25 10:37:00;;;;;;;;;;;9.40;99.90;;;;;;5094247;28;19982;-75
2022/11/25 10:39:28;;;;;;;;;;;9.50;99.90;;;;;;5093678;28;19981;-75
2022/11/25 10:42:12;;;;;;;;;;;9.60;99.90;;;;;;5093556;28;19951;-75
2022/11/25 10:44:39;;;;;;;;;;;9.60;99.90;;;;;;5093283;28;20292;-75
2022/11/25 10:47:25;;;;;;;;;;;9.60;99.90;;;;;;5075906;28;19908;-75
2022/11/25 10:49:50;;;;;;;;;;;9.60;99.90;;;;;;5094169;28;20288;-76
2022/11/25 10:52:19;;;;;;;;;;;9.60;99.90;;;;;;5093969;28;19908;-74
2022/11/25 10:54:54;;;;;;;;;;;9.60;99.90;;;;;;5093973;28;19908;-77
2022/11/25 10:57:20;;;;;;;;;;;9.60;99.90;;;;;;5093486;28;20012;-76
2022/11/25 10:59:58;;;;;;;;;;;9.60;99.90;;;;;;5093753;28;19935;-74
2022/11/25 11:02:26;;;;;;;;;;;9.60;99.90;;;;;;5093275;28;19908;-75
2022/11/25 11:04:53;;;;;;;;;;;9.60;99.90;;;;;;5093927;28;19954;-75
2022/11/25 11:07:19;;;;;;;;;;;9.60;99.90;;;;;;5094133;28;19916;-74
2022/11/25 11:09:45;;;;;;;;;;;9.60;99.90;;;;;;5092981;28;19909;-75
2022/11/25 11:12:19;;;;;;;;;;;9.60;99.90;;;;;;5093864;28;19998;-75
2022/11/25 11:14:45;;;;;;;;;;;9.70;99.90;;;;;;5093393;28;19951;-75
2022/11/25 11:17:29;;;;;;;;;;;9.60;99.90;;;;;;5093649;28;19959;-76
2022/11/25 11:20:13;;;;;;;;;;;9.70;99.90;;;;;;5075486;28;19908;-75
2022/11/25 11:22:44;;;;;;;;;;;9.70;99.90;;;;;;5075215;28;20346;-75
2022/11/25 11:25:23;;;;;;;;;;;9.80;99.90;;;;;;5093465;28;19908;-76
2022/11/25 11:27:49;;;;;;;;;;;9.90;99.90;;;;;;5093882;28;19908;-76
2022/11/25 11:30:23;;;;;;;;;;;9.90;99.90;;;;;;5093599;28;20323;-75
2022/11/25 11:33:00;;;;;;;;;;;9.80;99.90;;;;;;5092986;28;19964;-76
2022/11/25 11:35:35;;;;;;;;;;;9.90;99.90;;;;;;5092918;28;20369;-75
2022/11/25 11:38:03;;;;;;;;;;;9.80;99.90;;;;;;5093076;28;19924;-76
2022/11/25 11:40:34;;;;;;;;;;;9.90;99.90;;;;;;5092946;28;19919;-76
2022/11/25 11:43:06;;;;;;;;;;;9.90;99.90;;;;;;5093387;28;19915;-75
2022/11/25 11:45:55;;;;;;;;;;;10.00;99.90;;;;;;5092729;28;19908;-75
2022/11/25 11:48:27;;;;;;;;;;;10.00;99.90;;;;;;5093465;28;19908;-76
2022/11/25 11:51:09;;;;;;;;;;;10.00;99.90;;;;;;5074871;28;19909;-75
2022/11/25 11:53:55;;;;;;;;;;;10.00;99.90;;;;;;5092448;28;19915;-75
2022/11/25 11:56:59;;;;;;;;;;;10.00;99.90;;;;;;5092445;28;20053;-75
2022/11/25 11:59:47;;;;;;;;;;;10.00;99.90;;;;;;5050505;28;19927;-76
2022/11/25 12:02:22;;;;;;;;;;;10.10;99.90;;;;;;5050488;28;19909;-76
2022/11/25 12:04:54;;;;;;;;;;;10.10;99.90;;;;;;5050279;28;19955;-75
2022/11/25 12:07:20;;;;;;;;;;;10.00;99.90;;;;;;5050426;28;19959;-75
2022/11/25 12:09:54;;;;;;;;;;;10.00;99.90;;;;;;5050124;28;19913;-75
2022/11/25 12:12:23;;;;;;;;;;;10.10;99.90;;;;;;5050491;28;19940;-75
2022/11/25 12:14:50;;;;;;;;;;;10.10;99.90;;;;;;5049982;28;19952;-76
2022/11/25 12:17:18;;;;;;;;;;;10.10;99.90;;;;;;5050268;28;19920;-76
2022/11/25 12:19:46;;;;;;;;;;;10.10;99.90;;;;;;5049938;28;19912;-75
2022/11/25 12:22:17;;;;;;;;;;;10.10;99.90;;;;;;5052350;28;19988;-75
2022/11/25 12:25:01;;;;;;;;;;;10.20;99.90;;;;;;5037230;28;19982;-75
2022/11/25 12:27:47;;;;;;;;;;;10.30;99.90;;;;;;5053860;28;20446;-75
2022/11/25 12:30:15;;;;;;;;;;;10.40;99.90;;;;;;5075926;28;19908;-75
2022/11/25 12:32:59;;;;;;;;;;;10.30;99.90;;;;;;5096424;28;19915;-75
2022/11/25 12:35:25;;;;;;;;;;;10.40;99.90;;;;;;5096739;28;19912;-75
2022/11/25 12:38:11;;;;;;;;;;;10.50;99.90;;;;;;5096322;28;19920;-75
2022/11/25 12:40:43;;;;;;;;;;;10.40;99.90;;;;;;5096007;28;19919;-75
2022/11/25 12:43:16;;;;;;;;;;;10.50;99.90;;;;;;5096589;28;19951;-75
2022/11/25 12:45:43;;;;;;;;;;;10.50;99.90;;;;;;5111670;28;19930;-76
2022/11/25 12:48:10;;;;;;;;;;;10.50;99.90;;;;;;5078187;28;19935;-75
2022/11/25 12:50:42;;;;;;;;;;;10.60;99.90;;;;;;5095871;28;19908;-74
2022/11/25 12:53:12;;;;;;;;;;;10.70;99.90;;;;;;5096743;28;19962;-75
2022/11/25 12:55:39;;;;;;;;;;;10.70;99.90;;;;;;5095391;28;20438;-74
2022/11/25 12:58:04;;;;;;;;;;;10.60;99.90;;;;;;5096072;28;19912;-75
2022/11/25 13:00:41;;;;;;;;;;;10.60;99.90;;;;;;5095696;28;19935;-75
2022/11/25 13:03:20;;;;;;;;;;;10.60;99.90;;;;;;5095671;28;20302;-75
2022/11/25 13:05:49;;;;;;;;;;;10.60;99.90;;;;;;5095816;28;19908;-75
2022/11/25 13:08:33;;;;;;;;;;;10.60;99.90;;;;;;5096471;28;19908;-75
2022/11/25 13:11:14;;;;;;;;;;;10.60;99.90;;;;;;5077685;28;19960;-75
2022/11/25 13:14:09;;;;;;;;;;;10.70;99.90;;;;;;5095895;28;19955;-75
2022/11/25 13:16:34;;;;;;;;;;;10.70;99.90;;;;;;5086473;28;19909;-74
2022/11/25 13:19:00;;;;;;;;;;;10.80;99.90;;;;;;5095946;28;19912;-75
2022/11/25 13:21:27;;;;;;;;;;;10.80;99.90;;;;;;5095763;28;19923;-75
2022/11/25 13:23:55;;;;;;;;;;;10.80;99.90;;;;;;5095248;28;19908;-75
2022/11/25 13:26:36;;;;;;;;;;;10.80;99.90;;;;;;5095601;28;19916;-75
2022/11/25 13:29:06;;;;;;;;;;;10.80;99.90;;;;;;5095669;28;20032;-75
2022/11/25 13:31:33;;;;;;;;;;;10.80;99.90;;;;;;5095517;28;19935;-73
2022/11/25 13:34:23;;;;;;;;;;;10.70;99.90;;;;;;5094811;28;19912;-74
2022/11/25 13:36:53;;;;;;;;;;;10.70;99.90;;;;;;5095188;28;19920;-74
2022/11/25 13:39:35;;;;;;;;;;;10.60;99.90;;;;;;5095872;28;20380;-74
2022/11/25 13:42:12;;;;;;;;;;;10.50;99.90;;;;;;5095198;28;20280;-74
2022/11/25 13:44:49;;;;;;;;;;;10.50;99.90;;;;;;5094773;28;19951;-74
2022/11/25 13:47:35;;;;;;;;;;;10.50;99.90;;;;;;5095795;28;20006;-74
2022/11/25 13:50:15;;;;;;;;;;;10.50;99.90;;;;;;5095051;28;19991;-75
2022/11/25 13:52:41;;;;;;;;;;;10.60;99.90;;;;;;5094585;28;19915;-74
2022/11/25 13:55:15;;;;;;;;;;;10.60;99.90;;;;;;5094842;28;19908;-74
2022/11/25 13:57:44;;;;;;;;;;;10.60;99.90;;;;;;5094438;28;19922;-74
2022/11/25 14:00:18;;;;;;;;;;;10.60;99.90;;;;;;5095181;28;19998;-74
2022/11/25 14:02:45;;;;;;;;;;;10.60;99.90;;;;;;5094562;28;19908;-74
2022/11/25 14:05:37;;;;;;;;;;;10.50;99.90;;;;;;5094813;28;19961;-74
2022/11/25 14:08:18;;;;;;;;;;;10.50;99.90;;;;;;5095111;28;19962;-74
2022/11/25 14:10:59;;;;;;;;;;;10.50;99.90;;;;;;5094259;28;19953;-77
2022/11/25 14:13:40;;;;;;;;;;;10.40;99.90;;;;;;5094894;28;20303;-77
2022/11/25 14:16:11;;;;;;;;;;;10.30;99.90;;;;;;5094513;28;20434;-76
2022/11/25 14:19:03;;;;;;;;;;;10.30;99.90;;;;;;5094262;28;19935;-77
2022/11/25 14:21:43;;;;;;;;;;;10.20;99.90;;;;;;5078272;28;19999;-75
2022/11/25 14:24:19;;;;;;;;;;;10.20;99.90;;;;;;5094359;28;19912;-75
2022/11/25 14:26:45;;;;;;;;;;;10.20;99.90;;;;;;5093522;28;19916;-75
2022/11/25 14:29:17;;;;;;;;;;;10.10;99.90;;;;;;5094059;28;19931;-75
2022/11/25 14:31:45;;;;;;;;;;;10.10;99.90;;;;;;5093542;28;19963;-76
2022/11/25 14:34:11;;;;;;;;;;;10.10;99.90;;;;;;5094245;28;19908;-77
2022/11/25 14:36:42;;;;;;;;;;;10.10;99.90;;;;;;5093535;28;20356;-75
2022/11/25 14:39:12;;;;;;;;;;;10.10;99.90;;;;;;5075387;28;19919;-75
2022/11/25 14:41:43;;;;;;;;;;;10.10;99.90;;;;;;5093323;28;20304;-75
2022/11/25 14:44:13;;;;;;;;;;;10.10;99.90;;;;;;5093039;28;20336;-75
2022/11/25 14:46:51;;;;;;;;;;;10.10;99.90;;;;;;5092953;28;19999;-75
2022/11/25 14:49:17;;;;;;;;;;;10.10;99.90;;;;;;5093660;28;20002;-75